createdAt,value
2023-11-04T00:01:01.685Z,8.11
2023-11-04T00:03:37.800Z,8.12
2023-11-04T00:06:06.478Z,8.11
2023-11-04T00:08:33.487Z,8.13
2023-11-04T00:11:00.496Z,8.18
2023-11-04T00:13:27.474Z,8.18
2023-11-04T00:15:57.154Z,8.23
2023-11-04T00:18:24.276Z,8.24
2023-11-04T00:20:52.442Z,8.30
2023-11-04T00:23:19.752Z,8.36
2023-11-04T00:25:46.734Z,8.36
2023-11-04T00:28:13.802Z,8.35
2023-11-04T00:30:40.940Z,8.36
2023-11-04T00:33:10.625Z,8.38
2023-11-04T00:35:37.955Z,8.38
2023-11-04T00:38:04.977Z,8.43
2023-11-04T00:40:31.946Z,8.46
2023-11-04T00:42:59.137Z,8.45
2023-11-04T00:45:26.182Z,8.43
2023-11-04T00:47:53.257Z,8.44
2023-11-04T00:50:22.890Z,8.46
2023-11-04T00:52:49.928Z,8.47
2023-11-04T00:55:16.976Z,8.51
2023-11-04T00:57:44.067Z,8.54
2023-11-04T01:00:12.719Z,8.50
2023-11-04T01:02:40.192Z,8.47
2023-11-04T01:05:07.847Z,8.52
2023-11-04T01:07:37.540Z,8.54
2023-11-04T01:10:05.152Z,8.60
2023-11-04T01:12:32.181Z,8.62
2023-11-04T01:14:59.208Z,8.61
2023-11-04T01:17:26.252Z,8.65
2023-11-04T01:19:53.321Z,8.65
2023-11-04T01:22:20.309Z,8.71
2023-11-04T01:24:50.244Z,8.67
2023-11-04T01:27:17.369Z,8.70
2023-11-04T01:29:44.428Z,8.72
2023-11-04T01:32:11.441Z,8.75
2023-11-04T01:34:38.686Z,8.71
2023-11-04T01:37:05.831Z,8.66
2023-11-04T01:39:34.022Z,8.69
2023-11-04T01:42:07.705Z,8.68
2023-11-04T01:44:35.235Z,8.69
2023-11-04T01:47:02.676Z,8.71
2023-11-04T01:49:30.514Z,8.72
2023-11-04T01:51:58.520Z,8.69
2023-11-04T01:54:27.931Z,8.70
2023-11-04T01:56:55.285Z,8.67
2023-11-04T01:59:25.482Z,8.62
2023-11-04T02:01:52.835Z,8.62
2023-11-04T02:04:20.034Z,8.68
2023-11-04T02:06:47.182Z,8.63
2023-11-04T02:09:14.327Z,8.62
2023-11-04T02:11:41.541Z,8.64
2023-11-04T02:14:10.052Z,8.65
2023-11-04T02:16:39.656Z,8.63
2023-11-04T02:19:06.702Z,8.65
2023-11-04T02:21:36.432Z,8.65
2023-11-04T02:24:03.832Z,8.66
2023-11-04T02:26:31.020Z,8.65
2023-11-04T02:28:58.016Z,8.65
2023-11-04T02:31:25.014Z,8.63
2023-11-04T02:33:52.081Z,8.60
2023-11-04T02:36:19.287Z,8.56
2023-11-04T02:38:48.945Z,8.62
2023-11-04T02:41:15.980Z,8.55
2023-11-04T02:43:42.963Z,8.59
2023-11-04T02:46:09.915Z,8.61
2023-11-04T02:48:37.099Z,8.64
2023-11-04T02:51:04.949Z,8.70
2023-11-04T02:53:31.932Z,8.71
2023-11-04T02:56:01.484Z,8.70
2023-11-04T02:58:28.439Z,8.73
2023-11-04T03:00:55.966Z,8.78
2023-11-04T03:03:23.600Z,8.81
2023-11-04T03:05:50.647Z,8.84
2023-11-04T03:08:17.749Z,8.82
2023-11-04T03:10:44.785Z,8.89
2023-11-04T03:13:14.422Z,8.90
2023-11-04T03:15:41.485Z,8.90
2023-11-04T03:18:08.738Z,8.90
2023-11-04T03:20:35.795Z,8.90
2023-11-04T03:23:02.827Z,8.91
2023-11-04T03:25:29.813Z,8.88
2023-11-04T03:27:56.858Z,8.87
2023-11-04T03:30:26.511Z,8.91
2023-11-04T03:32:53.498Z,8.91
2023-11-04T03:35:20.524Z,8.90
2023-11-04T03:37:47.489Z,8.91
2023-11-04T03:40:14.636Z,8.86
2023-11-04T03:42:41.651Z,8.92
2023-11-04T03:45:09.314Z,8.87
2023-11-04T03:47:39.001Z,8.85
2023-11-04T03:50:07.164Z,8.85
2023-11-04T03:52:34.196Z,8.83
2023-11-04T03:55:01.232Z,8.86
2023-11-04T03:57:28.282Z,8.83
2023-11-04T03:59:55.816Z,8.77
2023-11-04T04:02:22.812Z,8.77
2023-11-04T04:04:54.797Z,8.79
2023-11-04T04:07:21.794Z,8.78
2023-11-04T04:09:48.796Z,8.73
2023-11-04T04:12:15.792Z,8.78
2023-11-04T04:14:42.828Z,8.76
2023-11-04T04:17:09.764Z,8.79
2023-11-04T04:19:38.193Z,8.73
2023-11-04T04:22:08.337Z,8.66
2023-11-04T04:24:35.394Z,8.67
2023-11-04T04:27:02.389Z,8.69
2023-11-04T04:29:29.346Z,8.68
2023-11-04T04:31:56.324Z,8.68
2023-11-04T04:34:23.275Z,8.64
2023-11-04T04:36:50.295Z,8.63
2023-11-04T04:39:19.917Z,8.67
2023-11-04T04:41:46.923Z,8.62
2023-11-04T04:44:13.913Z,8.64
2023-11-04T04:46:41.058Z,8.70
2023-11-04T04:49:08.189Z,8.73
2023-11-04T04:51:35.369Z,8.80
2023-11-04T04:54:02.499Z,8.75
2023-11-04T04:56:32.099Z,8.77
2023-11-04T04:58:59.104Z,8.81
2023-11-04T05:01:26.358Z,8.82
2023-11-04T05:03:53.408Z,8.74
2023-11-04T05:06:20.421Z,8.80
2023-11-04T05:08:47.398Z,8.86
2023-11-04T05:11:14.440Z,8.91
2023-11-04T05:13:44.239Z,8.96
2023-11-04T05:16:11.272Z,8.98
2023-11-04T05:18:38.351Z,9.02
2023-11-04T05:21:06.048Z,9.04
2023-11-04T05:23:33.324Z,9.02
2023-11-04T05:26:01.016Z,9.01
2023-11-04T05:28:28.131Z,9.05
2023-11-04T05:30:57.795Z,9.08
2023-11-04T05:33:25.001Z,9.03
2023-11-04T05:35:52.091Z,9.04
2023-11-04T05:38:19.167Z,9.00
2023-11-04T05:40:46.389Z,9.00
2023-11-04T05:43:13.410Z,9.04
2023-11-04T05:45:40.513Z,9.03
2023-11-04T05:48:10.293Z,8.98
2023-11-04T05:50:37.368Z,9.04
2023-11-04T05:53:04.344Z,9.08
2023-11-04T05:55:31.351Z,9.10
2023-11-04T05:57:58.389Z,9.11
2023-11-04T06:00:25.851Z,9.12
2023-11-04T06:02:52.931Z,9.12
2023-11-04T06:05:22.599Z,9.14
2023-11-04T06:07:49.604Z,9.10
2023-11-04T06:10:17.084Z,9.07
2023-11-04T06:12:44.212Z,9.11
2023-11-04T06:15:11.389Z,9.11
2023-11-04T06:17:38.454Z,9.09
2023-11-04T06:20:06.920Z,9.08
2023-11-04T06:22:36.521Z,9.10
2023-11-04T06:25:05.287Z,9.11
2023-11-04T06:27:33.652Z,9.02
2023-11-04T06:30:00.824Z,8.91
2023-11-04T06:32:27.865Z,8.90
2023-11-04T06:34:54.934Z,8.88
2023-11-04T06:37:22.057Z,8.79
2023-11-04T06:39:51.668Z,8.83
2023-11-04T06:42:18.733Z,8.84
2023-11-04T06:44:45.850Z,8.84
2023-11-04T06:47:12.913Z,8.79
2023-11-04T06:49:40.042Z,8.83
2023-11-04T06:52:07.070Z,8.83
2023-11-04T06:54:34.105Z,8.86
2023-11-04T06:57:04.265Z,8.83
2023-11-04T06:59:31.394Z,8.85
2023-11-04T07:01:58.343Z,8.83
2023-11-04T07:04:25.359Z,8.80
2023-11-04T07:06:53.636Z,8.81
2023-11-04T07:09:20.668Z,8.83
2023-11-04T07:11:47.675Z,8.82
2023-11-04T07:14:17.323Z,8.85
2023-11-04T07:16:44.611Z,8.83
2023-11-04T07:19:11.766Z,8.81
2023-11-04T07:21:39.255Z,8.87
2023-11-04T07:24:07.638Z,8.87
2023-11-04T07:26:34.605Z,8.87
2023-11-04T07:29:01.759Z,8.93
2023-11-04T07:31:31.387Z,8.97
2023-11-04T07:33:58.619Z,8.98
2023-11-04T07:36:26.365Z,8.99
2023-11-04T07:38:53.815Z,9.07
2023-11-04T07:41:20.835Z,9.10
2023-11-04T07:43:48.378Z,9.09
2023-11-04T07:46:15.647Z,9.09
2023-11-04T07:48:45.382Z,9.04
2023-11-04T07:51:12.546Z,9.06
2023-11-04T07:53:39.635Z,9.11
2023-11-04T07:56:07.516Z,9.12
2023-11-04T07:58:34.524Z,9.16
2023-11-04T08:01:01.736Z,9.13
2023-11-04T08:03:28.866Z,9.18
2023-11-04T08:05:58.591Z,9.21
2023-11-04T08:08:25.659Z,9.29
2023-11-04T08:10:52.899Z,9.37
2023-11-04T08:13:19.880Z,9.43
2023-11-04T08:15:47.043Z,9.55
2023-11-04T08:18:14.198Z,9.60
2023-11-04T08:20:41.236Z,9.61
2023-11-04T08:23:10.847Z,9.67
2023-11-04T08:25:37.886Z,9.71
2023-11-04T08:28:05.385Z,9.79
2023-11-04T08:30:32.503Z,9.87
2023-11-04T08:32:59.606Z,9.93
2023-11-04T08:35:26.690Z,10.04
2023-11-04T08:37:53.794Z,10.08
2023-11-04T08:40:23.456Z,10.14
2023-11-04T08:42:50.521Z,10.20
2023-11-04T08:45:17.611Z,10.23
2023-11-04T08:47:44.668Z,10.27
2023-11-04T08:50:12.164Z,10.30
2023-11-04T08:52:39.226Z,10.32
2023-11-04T08:55:07.568Z,10.29
2023-11-04T08:57:37.515Z,10.37
2023-11-04T09:00:05.774Z,10.45
2023-11-04T09:02:32.806Z,10.55
2023-11-04T09:05:05.571Z,10.64
2023-11-04T09:07:35.203Z,10.68
2023-11-04T09:10:02.488Z,10.72
2023-11-04T09:12:29.698Z,10.77
2023-11-04T09:14:59.576Z,10.85
2023-11-04T09:17:26.689Z,10.94
2023-11-04T09:19:53.716Z,11.03
2023-11-04T09:22:20.775Z,11.11
2023-11-04T09:24:47.780Z,11.13
2023-11-04T09:27:14.830Z,11.17
2023-11-04T09:29:41.856Z,11.19
2023-11-04T09:32:11.455Z,11.22
2023-11-04T09:34:38.755Z,11.20
2023-11-04T09:37:05.876Z,11.22
2023-11-04T09:39:32.882Z,11.28
2023-11-04T09:42:00.026Z,11.28
2023-11-04T09:44:27.231Z,11.32
2023-11-04T09:46:54.417Z,11.33
2023-11-04T09:49:24.109Z,11.38
2023-11-04T09:51:54.744Z,11.34
2023-11-04T09:54:23.371Z,11.34
2023-11-04T09:56:50.413Z,11.41
2023-11-04T09:59:17.559Z,11.40
2023-11-04T10:01:44.605Z,11.39
2023-11-04T10:04:11.835Z,11.42
2023-11-04T10:06:41.575Z,11.44
2023-11-04T10:09:08.804Z,11.45
2023-11-04T10:11:35.822Z,11.52
2023-11-04T10:14:02.882Z,11.57
2023-11-04T10:16:30.228Z,11.68
2023-11-04T10:18:57.627Z,11.76
2023-11-04T10:21:24.876Z,11.74
2023-11-04T10:23:54.992Z,11.75
2023-11-04T10:26:22.056Z,11.78
2023-11-04T10:28:49.434Z,11.87
2023-11-04T10:31:18.973Z,11.91
2023-11-04T10:33:49.306Z,12.00
2023-11-04T10:36:16.786Z,12.07
2023-11-04T10:38:48.373Z,12.13
2023-11-04T10:41:20.628Z,12.21
2023-11-04T10:43:52.941Z,12.24
2023-11-04T10:46:43.113Z,12.23
2023-11-04T10:49:20.711Z,12.22
2023-11-04T10:51:56.262Z,12.23
2023-11-04T10:54:31.921Z,12.17
2023-11-04T10:57:11.740Z,12.18
2023-11-04T10:59:52.098Z,12.32
2023-11-04T11:02:19.549Z,12.39
2023-11-04T11:04:49.464Z,12.51
2023-11-04T11:07:19.881Z,12.74
2023-11-04T11:09:48.691Z,12.97
2023-11-04T11:12:24.091Z,13.18
2023-11-04T11:14:52.748Z,13.51
2023-11-04T11:17:30.036Z,13.35
2023-11-04T11:19:57.224Z,13.10
2023-11-04T11:22:25.205Z,12.98
2023-11-04T11:24:52.997Z,12.93
2023-11-04T11:27:24.758Z,12.87
2023-11-04T11:29:52.450Z,12.81
2023-11-04T11:32:19.571Z,12.78
2023-11-04T11:34:50.071Z,12.82
2023-11-04T11:37:21.544Z,12.79
2023-11-04T11:39:48.826Z,12.75
2023-11-04T11:42:15.969Z,12.70
2023-11-04T11:44:45.878Z,12.71
2023-11-04T11:47:13.000Z,12.76
2023-11-04T11:49:39.992Z,12.74
2023-11-04T11:52:07.181Z,12.64
2023-11-04T11:54:34.421Z,12.48
2023-11-04T11:57:02.123Z,12.34
2023-11-04T11:59:29.188Z,12.32
2023-11-04T12:02:01.476Z,12.28
2023-11-04T12:04:30.236Z,12.30
2023-11-04T12:06:57.436Z,12.37
2023-11-04T12:09:24.424Z,12.27
2023-11-04T12:11:52.016Z,12.25
2023-11-04T12:14:19.233Z,12.39
2023-11-04T12:16:47.577Z,12.36
2023-11-04T12:19:18.234Z,12.32
2023-11-04T12:21:45.425Z,12.14
2023-11-04T12:24:12.704Z,12.14
2023-11-04T12:26:39.783Z,12.20
2023-11-04T12:29:06.858Z,12.18
2023-11-04T12:31:33.955Z,12.06
2023-11-04T12:34:03.464Z,12.01
2023-11-04T12:36:33.235Z,11.90
2023-11-04T12:39:00.363Z,11.97
2023-11-04T12:41:28.264Z,11.92
2023-11-04T12:43:55.464Z,11.92
2023-11-04T12:46:22.974Z,12.03
2023-11-04T12:48:50.285Z,12.01
2023-11-04T12:51:17.606Z,11.90
2023-11-04T12:53:47.224Z,11.88
2023-11-04T12:56:14.291Z,11.97
2023-11-04T12:58:41.398Z,12.06
2023-11-04T13:01:08.615Z,12.11
2023-11-04T13:03:35.778Z,12.00
2023-11-04T13:06:02.961Z,12.12
2023-11-04T13:08:30.060Z,12.18
2023-11-04T13:10:59.978Z,12.17
2023-11-04T13:13:27.181Z,12.10
2023-11-04T13:15:54.193Z,11.95
2023-11-04T13:18:21.303Z,11.89
2023-11-04T13:20:48.323Z,12.00
2023-11-04T13:23:17.892Z,12.13
2023-11-04T13:25:46.298Z,12.08
2023-11-04T13:28:15.980Z,12.10
2023-11-04T13:30:43.227Z,12.00
2023-11-04T13:33:10.416Z,11.94
2023-11-04T13:35:37.759Z,11.79
2023-11-04T13:38:04.923Z,11.82
2023-11-04T13:40:31.913Z,11.88
2023-11-04T13:42:59.108Z,11.97
2023-11-04T13:45:28.741Z,12.06
2023-11-04T13:47:55.797Z,12.00
2023-11-04T13:50:22.949Z,11.97
2023-11-04T13:52:50.027Z,11.97
2023-11-04T13:55:17.120Z,11.97
2023-11-04T13:57:44.252Z,11.87
2023-11-04T14:00:12.290Z,11.70
2023-11-04T14:02:42.045Z,11.61
2023-11-04T14:05:09.615Z,11.73
2023-11-04T14:07:36.866Z,11.72
2023-11-04T14:10:04.425Z,11.63
2023-11-04T14:12:31.606Z,11.53
2023-11-04T14:14:58.621Z,11.55
2023-11-04T14:17:26.044Z,11.69
2023-11-04T14:19:55.775Z,11.70
2023-11-04T14:22:22.792Z,11.73
2023-11-04T14:24:49.877Z,11.72
2023-11-04T14:27:16.999Z,11.69
2023-11-04T14:29:43.993Z,11.72
2023-11-04T14:32:11.113Z,11.77
2023-11-04T14:34:38.244Z,11.77
2023-11-04T14:37:08.130Z,11.72
2023-11-04T14:39:35.578Z,11.73
2023-11-04T14:42:02.592Z,11.74
2023-11-04T14:44:29.705Z,11.75
2023-11-04T14:46:56.861Z,11.74
2023-11-04T14:49:34.544Z,11.70
2023-11-04T14:52:01.783Z,11.65
2023-11-04T14:54:31.585Z,11.60
2023-11-04T14:57:00.540Z,11.61
2023-11-04T14:59:29.021Z,11.62
2023-11-04T15:01:56.072Z,11.56
2023-11-04T15:04:23.636Z,11.51
2023-11-04T15:06:50.860Z,11.54
2023-11-04T15:09:17.916Z,11.58
2023-11-04T15:11:47.561Z,11.59
2023-11-04T15:14:14.735Z,11.61
2023-11-04T15:16:41.990Z,11.62
2023-11-04T15:19:09.178Z,11.60
2023-11-04T15:21:36.532Z,11.55
2023-11-04T15:24:03.994Z,11.51
2023-11-04T15:26:31.007Z,11.56
2023-11-04T15:29:00.701Z,11.47
2023-11-04T15:31:27.825Z,11.50
2023-11-04T15:33:54.912Z,11.52
2023-11-04T15:36:21.996Z,11.52
2023-11-04T15:38:49.105Z,11.43
2023-11-04T15:41:16.147Z,11.43
2023-11-04T15:43:43.180Z,11.44
2023-11-04T15:46:12.816Z,11.43
2023-11-04T15:48:40.047Z,11.53
2023-11-04T15:51:07.614Z,11.41
2023-11-04T15:53:34.910Z,11.36
2023-11-04T15:56:03.349Z,11.43
2023-11-04T15:58:31.488Z,11.40
2023-11-04T16:00:58.906Z,11.42
2023-11-04T16:03:28.635Z,11.44
2023-11-04T16:05:55.899Z,11.42
2023-11-04T16:08:23.294Z,11.43
2023-11-04T16:10:50.281Z,11.44
2023-11-04T16:13:17.427Z,11.49
2023-11-04T16:15:44.593Z,11.56
2023-11-04T16:18:11.728Z,11.68
2023-11-04T16:20:41.651Z,11.78
2023-11-04T16:23:08.765Z,11.86
2023-11-04T16:25:35.969Z,11.88
2023-11-04T16:28:02.991Z,11.76
2023-11-04T16:30:30.048Z,11.78
2023-11-04T16:32:57.601Z,11.80
2023-11-04T16:35:24.779Z,11.86
2023-11-04T16:37:54.367Z,11.89
2023-11-04T16:40:21.652Z,11.91
2023-11-04T16:42:48.708Z,11.92
2023-11-04T16:45:17.049Z,11.94
2023-11-04T16:47:44.879Z,11.90
2023-11-04T16:50:12.287Z,11.93
2023-11-04T16:52:39.330Z,11.94
2023-11-04T16:55:09.598Z,11.97
2023-11-04T16:57:36.775Z,11.93
2023-11-04T17:00:04.809Z,11.99
2023-11-04T17:02:31.803Z,12.01
2023-11-04T17:04:59.108Z,12.06
2023-11-04T17:07:26.293Z,12.08
2023-11-04T17:09:53.376Z,12.14
2023-11-04T17:12:23.045Z,12.20
2023-11-04T17:14:50.606Z,12.24
2023-11-04T17:17:17.748Z,12.22
2023-11-04T17:19:44.781Z,12.26
2023-11-04T17:22:12.056Z,12.29
2023-11-04T17:24:39.465Z,12.30
2023-11-04T17:27:06.488Z,12.32
2023-11-04T17:29:36.303Z,12.31
2023-11-04T17:32:03.383Z,12.32
2023-11-04T17:34:30.572Z,12.25
2023-11-04T17:36:57.719Z,12.26
2023-11-04T17:39:24.950Z,12.29
2023-11-04T17:41:51.996Z,12.29
2023-11-04T17:44:18.996Z,12.28
2023-11-04T17:46:48.586Z,12.26
2023-11-04T17:49:15.535Z,12.31
2023-11-04T17:51:42.588Z,12.32
2023-11-04T17:54:09.731Z,12.30
2023-11-04T17:56:36.843Z,12.31
2023-11-04T17:59:04.135Z,12.29
2023-11-04T18:01:31.260Z,12.32
2023-11-04T18:04:01.062Z,12.35
2023-11-04T18:06:28.209Z,12.33
2023-11-04T18:08:55.229Z,12.37
2023-11-04T18:11:22.284Z,12.41
2023-11-04T18:13:49.320Z,12.38
2023-11-04T18:16:16.449Z,12.39
2023-11-04T18:18:43.605Z,12.42
2023-11-04T18:21:13.371Z,12.39
2023-11-04T18:23:40.464Z,12.41
2023-11-04T18:26:07.557Z,12.45
2023-11-04T18:28:34.596Z,12.52
2023-11-04T18:31:01.756Z,12.48
2023-11-04T18:33:28.871Z,12.47
2023-11-04T18:35:56.017Z,12.49
2023-11-04T18:38:26.008Z,12.51
2023-11-04T18:40:53.002Z,12.50
2023-11-04T18:43:20.158Z,12.52
2023-11-04T18:45:47.375Z,12.51
2023-11-04T18:48:14.639Z,12.54
2023-11-04T18:50:41.932Z,12.56
2023-11-04T18:53:08.984Z,12.50
2023-11-04T18:55:38.633Z,12.56
2023-11-04T18:58:05.818Z,12.55
2023-11-04T19:00:32.933Z,12.59
2023-11-04T19:03:01.158Z,12.63
2023-11-04T19:05:28.458Z,12.64
2023-11-04T19:07:57.980Z,12.66
2023-11-04T19:10:27.419Z,12.69
2023-11-04T19:12:57.207Z,12.70
2023-11-04T19:15:24.221Z,12.73
2023-11-04T19:17:51.532Z,12.71
2023-11-04T19:20:21.446Z,12.72
2023-11-04T19:22:48.488Z,12.72
2023-11-04T19:25:17.725Z,12.74
2023-11-04T19:27:44.837Z,12.75
2023-11-04T19:30:14.963Z,12.71
2023-11-04T19:32:42.028Z,12.70
2023-11-04T19:35:10.038Z,12.72
2023-11-04T19:37:37.133Z,12.72
2023-11-04T19:40:05.085Z,12.73
2023-11-04T19:42:32.908Z,12.79
2023-11-04T19:44:59.982Z,12.83
2023-11-04T19:47:34.084Z,12.84
2023-11-04T19:50:01.326Z,12.82
2023-11-04T19:52:28.400Z,12.77
2023-11-04T19:54:55.575Z,12.77
2023-11-04T19:57:22.769Z,12.78
2023-11-04T19:59:49.868Z,12.75
2023-11-04T20:02:19.541Z,12.71
2023-11-04T20:04:49.351Z,12.65
2023-11-04T20:07:16.694Z,12.62
2023-11-04T20:09:45.205Z,12.62
2023-11-04T20:12:14.280Z,12.56
2023-11-04T20:14:41.344Z,12.55
2023-11-04T20:17:08.952Z,12.52
2023-11-04T20:19:36.080Z,12.45
2023-11-04T20:22:05.776Z,12.43
2023-11-04T20:24:32.905Z,12.32
2023-11-04T20:27:00.115Z,12.35
2023-11-04T20:29:27.166Z,12.30
2023-11-04T20:31:54.210Z,12.17
2023-11-04T20:34:21.324Z,12.03
2023-11-04T20:36:48.450Z,12.02
2023-11-04T20:39:18.241Z,11.97
2023-11-04T20:41:45.301Z,11.83
2023-11-04T20:44:12.449Z,11.43
2023-11-04T20:46:39.607Z,11.34
2023-11-04T20:49:06.744Z,11.43
2023-11-04T20:51:33.777Z,11.36
2023-11-04T20:54:00.848Z,11.24
2023-11-04T20:56:30.564Z,11.28
2023-11-04T20:58:57.598Z,11.22
2023-11-04T21:01:24.706Z,11.13
2023-11-04T21:03:51.943Z,11.13
2023-11-04T21:06:19.027Z,11.11
2023-11-04T21:08:46.674Z,11.01
2023-11-04T21:11:13.799Z,10.93
2023-11-04T21:13:43.455Z,10.97
2023-11-04T21:16:10.976Z,10.92
2023-11-04T21:18:38.321Z,10.86
2023-11-04T21:21:06.973Z,10.79
2023-11-04T21:23:34.079Z,10.71
2023-11-04T21:26:01.725Z,10.71
2023-11-04T21:28:29.550Z,10.63
2023-11-04T21:30:59.447Z,10.62
2023-11-04T21:33:32.431Z,10.68
2023-11-04T21:35:59.916Z,10.61
2023-11-04T21:38:27.097Z,10.70
2023-11-04T21:40:54.124Z,10.58
2023-11-04T21:43:21.316Z,10.56
2023-11-04T21:45:48.339Z,10.48
2023-11-04T21:48:18.032Z,10.43
2023-11-04T21:50:45.055Z,10.45
2023-11-04T21:53:12.092Z,10.51
2023-11-04T21:55:39.133Z,10.51
2023-11-04T21:58:06.181Z,10.48
2023-11-04T22:00:33.229Z,10.48
2023-11-04T22:03:00.318Z,10.44
2023-11-04T22:05:29.986Z,10.53
2023-11-04T22:07:57.023Z,10.60
2023-11-04T22:10:24.121Z,10.65
2023-11-04T22:12:51.231Z,10.61
2023-11-04T22:15:18.483Z,10.65
2023-11-04T22:17:45.917Z,10.67
2023-11-04T22:20:13.175Z,10.62
2023-11-04T22:22:42.800Z,10.59
2023-11-04T22:25:10.097Z,10.64
2023-11-04T22:27:37.166Z,10.69
2023-11-04T22:30:05.260Z,10.67
2023-11-04T22:32:32.318Z,10.59
2023-11-04T22:34:59.343Z,10.63
2023-11-04T22:37:26.435Z,10.70
2023-11-04T22:39:56.134Z,10.84
2023-11-04T22:42:23.155Z,10.84
2023-11-04T22:44:50.144Z,10.76
2023-11-04T22:47:17.164Z,10.77
2023-11-04T22:49:44.272Z,10.88
2023-11-04T22:52:11.389Z,10.88
2023-11-04T22:54:38.541Z,10.93
2023-11-04T22:57:08.268Z,10.95
2023-11-04T22:59:35.303Z,10.98
2023-11-04T23:02:02.331Z,11.00
2023-11-04T23:04:29.575Z,11.01
2023-11-04T23:06:56.628Z,11.05
2023-11-04T23:09:23.759Z,11.07
2023-11-04T23:11:50.973Z,11.05
2023-11-04T23:14:20.596Z,11.07
2023-11-04T23:16:47.622Z,11.11
2023-11-04T23:19:14.666Z,11.16
2023-11-04T23:21:41.856Z,11.18
2023-11-04T23:24:09.414Z,11.15
2023-11-04T23:26:36.466Z,11.22
2023-11-04T23:29:03.620Z,11.27
2023-11-04T23:31:33.274Z,11.37
2023-11-04T23:34:00.369Z,11.40
2023-11-04T23:36:27.422Z,11.43
2023-11-04T23:38:54.437Z,11.45
2023-11-04T23:41:23.757Z,11.54
2023-11-04T23:43:50.754Z,11.58
2023-11-04T23:46:17.881Z,11.57
2023-11-04T23:48:47.515Z,11.49
2023-11-04T23:51:14.565Z,11.48
2023-11-04T23:53:41.628Z,11.51
2023-11-04T23:56:09.559Z,11.51
2023-11-04T23:58:36.649Z,11.51
